sensor_id;sensor_type;location;lat;lon;timestamp;temperature;humidity
12771;DHT22;6449;47.666;9.160;2022-12-20T05:38:01;0.50;99.90
12771;DHT22;6449;47.666;9.160;2022-12-20T05:42:55;0.50;99.90
12771;DHT22;6449;47.666;9.160;2022-12-20T05:47:49;0.50;99.90
12771;DHT22;6449;47.666;9.160;2022-12-20T06:57:58;0.50;99.90
12771;DHT22;6449;47.666;9.160;2022-12-20T07:02:52;0.60;99.90
12771;DHT22;6449;47.666;9.160;2022-12-20T08:32:33;1.00;99.90
12771;DHT22;6449;47.666;9.160;2022-12-20T08:37:27;1.10;99.90
12771;DHT22;6449;47.666;9.160;2022-12-20T08:42:21;1.10;99.90
12771;DHT22;6449;47.666;9.160;2022-12-20T09:32:56;1.40;99.90
12771;DHT22;6449;47.666;9.160;2022-12-20T09:38:01;1.50;99.90
12771;DHT22;6449;47.666;9.160;2022-12-20T09:42:54;1.50;99.90
12771;DHT22;6449;47.666;9.160;2022-12-20T09:47:49;1.60;99.90
12771;DHT22;6449;47.666;9.160;2022-12-20T09:52:55;1.60;99.90
12771;DHT22;6449;47.666;9.160;2022-12-20T10:11:17;1.80;99.90
12771;DHT22;6449;47.666;9.160;2022-12-20T10:16:39;1.70;99.90
12771;DHT22;6449;47.666;9.160;2022-12-20T10:21:43;1.70;99.90
12771;DHT22;6449;47.666;9.160;2022-12-20T10:26:45;1.70;99.90
12771;DHT22;6449;47.666;9.160;2022-12-20T10:31:42;1.80;99.90
12771;DHT22;6449;47.666;9.160;2022-12-20T10:36:36;1.80;99.90
12771;DHT22;6449;47.666;9.160;2022-12-20T10:41:32;1.90;99.90
12771;DHT22;6449;47.666;9.160;2022-12-20T11:05:25;2.30;99.90
12771;DHT22;6449;47.666;9.160;2022-12-20T11:10:22;2.40;99.90
12771;DHT22;6449;47.666;9.160;2022-12-20T16:33:33;2.00;99.90
12771;DHT22;6449;47.666;9.160;2022-12-20T16:38:26;1.90;99.90
12771;DHT22;6449;47.666;9.160;2022-12-20T16:56:24;1.90;99.90
12771;DHT22;6449;47.666;9.160;2022-12-20T17:01:20;2.00;99.90
12771;DHT22;6449;47.666;9.160;2022-12-20T17:06:16;2.00;99.90
12771;DHT22;6449;47.666;9.160;2022-12-20T17:11:15;2.00;99.90
12771;DHT22;6449;47.666;9.160;2022-12-20T17:16:14;2.00;99.90
12771;DHT22;6449;47.666;9.160;2022-12-20T17:21:21;2.00;99.90
12771;DHT22;6449;47.666;9.160;2022-12-20T17:26:22;2.00;99.90
12771;DHT22;6449;47.666;9.160;2022-12-20T17:31:25;2.00;99.90
12771;DHT22;6449;47.666;9.160;2022-12-20T17:43:02;2.10;99.90
12771;DHT22;6449;47.666;9.160;2022-12-20T17:47:58;2.10;99.90
12771;DHT22;6449;47.666;9.160;2022-12-20T17:52:52;2.20;99.90
12771;DHT22;6449;47.666;9.160;2022-12-20T17:57:46;2.10;99.90
12771;DHT22;6449;47.666;9.160;2022-12-20T18:02:40;2.20;99.90
12771;DHT22;6449;47.666;9.160;2022-12-20T18:07:36;2.20;99.90
12771;DHT22;6449;47.666;9.160;2022-12-20T18:12:30;2.20;99.90
12771;DHT22;6449;47.666;9.160;2022-12-20T18:17:39;2.10;99.90
12771;DHT22;6449;47.666;9.160;2022-12-20T18:22:32;2.10;99.90
12771;DHT22;6449;47.666;9.160;2022-12-20T18:27:28;2.10;99.90
12771;DHT22;6449;47.666;9.160;2022-12-20T18:32:22;2.10;99.90
12771;DHT22;6449;47.666;9.160;2022-12-20T18:37:15;2.10;99.90
12771;DHT22;6449;47.666;9.160;2022-12-20T18:42:34;2.10;99.90
12771;DHT22;6449;47.666;9.160;2022-12-20T18:47:29;2.10;99.90
12771;DHT22;6449;47.666;9.160;2022-12-20T18:52:44;2.10;99.90
12771;DHT22;6449;47.666;9.160;2022-12-20T18:57:39;2.10;99.90
12771;DHT22;6449;47.666;9.160;2022-12-20T19:08:49;2.10;99.90
12771;DHT22;6449;47.666;9.160;2022-12-20T19:14:14;2.10;99.90
12771;DHT22;6449;47.666;9.160;2022-12-20T19:19:08;2.10;99.90
12771;DHT22;6449;47.666;9.160;2022-12-20T19:24:04;2.10;99.90
12771;DHT22;6449;47.666;9.160;2022-12-20T19:29:38;2.10;99.90
12771;DHT22;6449;47.666;9.160;2022-12-20T20:19:34;2.10;99.90
12771;DHT22;6449;47.666;9.160;2022-12-20T20:25:30;2.20;99.90
12771;DHT22;6449;47.666;9.160;2022-12-20T21:36:00;2.30;99.90
12771;DHT22;6449;47.666;9.160;2022-12-20T21:41:03;2.30;99.90
12771;DHT22;6449;47.666;9.160;2022-12-20T21:59:22;2.20;99.90
12771;DHT22;6449;47.666;9.160;2022-12-20T22:04:28;2.20;99.90
12771;DHT22;6449;47.666;9.160;2022-12-20T22:09:23;2.20;99.90
12771;DHT22;6449;47.666;9.160;2022-12-20T22:15:48;2.20;99.90
12771;DHT22;6449;47.666;9.160;2022-12-20T22:21:23;2.20;99.90
12771;DHT22;6449;47.666;9.160;2022-12-20T22:27:28;2.10;99.90
12771;DHT22;6449;47.666;9.160;2022-12-20T22:32:22;2.10;99.90
12771;DHT22;6449;47.666;9.160;2022-12-20T22:37:18;2.20;99.90
12771;DHT22;6449;47.666;9.160;2022-12-20T22:42:38;2.20;99.90
12771;DHT22;6449;47.666;9.160;2022-12-20T22:49:02;2.10;99.90
12771;DHT22;6449;47.666;9.160;2022-12-20T22:54:15;2.10;99.90
12771;DHT22;6449;47.666;9.160;2022-12-20T22:59:09;2.20;99.90
12771;DHT22;6449;47.666;9.160;2022-12-20T23:04:04;2.20;99.90
12771;DHT22;6449;47.666;9.160;2022-12-20T23:09:11;2.20;99.90
12771;DHT22;6449;47.666;9.160;2022-12-20T23:14:17;2.20;99.90
12771;DHT22;6449;47.666;9.160;2022-12-20T23:19:30;2.20;99.90
12771;DHT22;6449;47.666;9.160;2022-12-20T23:24:47;2.20;99.90
12771;DHT22;6449;47.666;9.160;2022-12-20T23:35:08;2.20;99.90
12771;DHT22;6449;47.666;9.160;2022-12-20T23:40:14;2.30;99.90
12771;DHT22;6449;47.666;9.160;2022-12-20T23:45:11;2.30;99.90
12771;DHT22;6449;47.666;9.160;2022-12-20T23:50:27;2.30;99.90
12771;DHT22;6449;47.666;9.160;2022-12-20T23:55:20;2.30;99.90
